Time;durP1;ratioP1;P1;durP2;ratioP2;P2;SDS_P1;SDS_P2;PMS_P1;PMS_P2;Temp;Humidity;BMP_temperature;BMP_pressure;BME280_temperature;BME280_humidity;BME280_pressure;Samples;Min_cycle;Max_cycle;Signal;HPM_P1;HPM_P2
2022/06/13 00:00:22;;;;;;;11.60;5.93;;;13.80;99.90;;;;;;5064177;28;20056;-64
2022/06/13 00:02:49;;;;;;;13.43;5.85;;;13.60;99.90;;;;;;5067402;28;20109;-64
2022/06/13 00:05:15;;;;;;;15.32;6.32;;;13.60;99.90;;;;;;5068007;28;20500;-64
2022/06/13 00:07:41;;;;;;;12.32;5.50;;;13.60;99.90;;;;;;5049896;28;20048;-64
2022/06/13 00:10:08;;;;;;;18.88;6.63;;;13.50;99.90;;;;;;5074623;28;20057;-64
2022/06/13 00:12:34;;;;;;;12.43;5.65;;;13.40;99.90;;;;;;5063427;28;20059;-64
2022/06/13 00:15:01;;;;;;;14.13;6.32;;;13.40;99.90;;;;;;5071632;28;20060;-64
2022/06/13 00:17:26;;;;;;;15.70;5.78;;;13.40;99.90;;;;;;5069349;28;20080;-64
2022/06/13 00:19:52;;;;;;;11.25;5.78;;;13.30;99.90;;;;;;5066708;28;20052;-64
2022/06/13 00:22:18;;;;;;;14.27;5.88;;;13.50;99.90;;;;;;5069525;28;20076;-64
2022/06/13 00:24:45;;;;;;;12.70;5.82;;;13.30;99.90;;;;;;5064727;28;20103;-64
2022/06/13 00:27:11;;;;;;;14.57;6.93;;;13.40;99.90;;;;;;5062326;28;20052;-64
2022/06/13 00:29:37;;;;;;;16.55;6.30;;;13.30;99.90;;;;;;5064659;28;20055;-64
2022/06/13 00:32:04;;;;;;;16.38;6.30;;;13.30;99.90;;;;;;5059543;28;20041;-64
2022/06/13 00:34:30;;;;;;;14.57;5.88;;;13.20;99.90;;;;;;5068500;28;20079;-64
2022/06/13 00:36:55;;;;;;;13.07;6.28;;;13.30;99.90;;;;;;5070763;28;20068;-64
2022/06/13 00:39:21;;;;;;;12.60;5.32;;;13.20;99.90;;;;;;5053432;28;20049;-64
2022/06/13 00:41:48;;;;;;;15.88;6.55;;;13.10;99.90;;;;;;5069828;28;20045;-64
2022/06/13 00:44:19;;;;;;;13.40;5.88;;;13.10;99.90;;;;;;5075984;28;20048;-64
2022/06/13 00:46:46;;;;;;;14.65;5.82;;;13.20;99.90;;;;;;5069412;28;23240;-64
2022/06/13 00:49:17;;;;;;;10.05;6.50;;;13.30;99.90;;;;;;5066208;28;20041;-64
2022/06/13 00:51:50;;;;;;;13.02;5.65;;;13.20;99.90;;;;;;5068041;28;20053;-64
2022/06/13 00:54:19;;;;;;;16.98;6.28;;;13.10;99.90;;;;;;5073682;28;20090;-64
2022/06/13 00:56:47;;;;;;;15.23;6.22;;;13.00;99.90;;;;;;5062198;28;20155;-64
2022/06/13 00:59:17;;;;;;;15.27;6.88;;;13.00;99.90;;;;;;5063394;28;20068;-64
2022/06/13 01:01:43;;;;;;;14.88;6.75;;;13.10;99.90;;;;;;5071761;28;20524;-64
2022/06/13 01:04:10;;;;;;;13.10;6.55;;;13.10;99.90;;;;;;5068890;28;20104;-64
2022/06/13 01:06:42;;;;;;;16.83;7.70;;;13.00;99.90;;;;;;5062751;28;20082;-64
2022/06/13 01:09:11;;;;;;;13.73;6.28;;;13.10;99.90;;;;;;5068411;28;20063;-64
2022/06/13 01:11:49;;;;;;;14.07;6.28;;;13.00;99.90;;;;;;5067602;28;20043;-64
2022/06/13 01:14:21;;;;;;;13.45;6.60;;;13.10;99.90;;;;;;5078522;28;20041;-64
2022/06/13 01:17:21;;;;;;;18.73;6.40;;;13.10;99.90;;;;;;5060721;28;20045;-64
2022/06/13 01:20:14;;;;;;;19.98;7.60;;;13.10;99.90;;;;;;5062823;28;20052;-64
2022/06/13 01:22:51;;;;;;;14.70;7.25;;;13.10;99.90;;;;;;5078254;28;20043;-64
2022/06/13 01:25:23;;;;;;;15.45;7.45;;;13.10;99.90;;;;;;5060418;28;20135;-64
2022/06/13 01:28:03;;;;;;;15.52;6.50;;;13.10;99.90;;;;;;5064687;28;20120;-64
2022/06/13 01:30:53;;;;;;;11.95;6.50;;;13.10;99.90;;;;;;5072143;28;20078;-64
2022/06/13 01:33:32;;;;;;;18.05;7.03;;;13.00;99.90;;;;;;5064633;28;20049;-64
2022/06/13 01:36:04;;;;;;;15.03;6.50;;;13.10;99.90;;;;;;5066335;28;20072;-64
2022/06/13 01:38:57;;;;;;;18.25;7.18;;;13.10;99.90;;;;;;5062565;28;20315;-64
2022/06/13 01:41:55;;;;;;;17.70;6.97;;;13.00;99.90;;;;;;5064263;28;20040;-64
2022/06/13 01:44:49;;;;;;;14.80;5.97;;;13.00;99.90;;;;;;5045598;28;20495;-65
2022/06/13 01:47:36;;;;;;;13.18;5.75;;;13.10;99.90;;;;;;5046569;28;20511;-64
2022/06/13 01:50:30;;;;;;;11.93;6.40;;;13.10;99.90;;;;;;5030070;28;20080;-64
2022/06/13 01:53:26;;;;;;;13.32;6.65;;;13.00;99.90;;;;;;5039460;28;20045;-64
2022/06/13 01:56:04;;;;;;;15.23;6.60;;;13.00;99.90;;;;;;5044676;28;20079;-64
2022/06/13 01:58:51;;;;;;;14.10;6.88;;;13.00;99.90;;;;;;5042398;28;20058;-64
2022/06/13 02:01:49;;;;;;;12.57;6.28;;;13.00;99.90;;;;;;5038533;28;20057;-64
2022/06/13 02:04:17;;;;;;;18.90;6.78;;;12.90;99.90;;;;;;5050558;28;20045;-64
2022/06/13 02:06:59;;;;;;;16.35;6.40;;;12.80;99.90;;;;;;5055324;28;20235;-64
2022/06/13 02:09:29;;;;;;;16.67;5.95;;;13.00;99.90;;;;;;5048113;28;20048;-64
2022/06/13 02:11:55;;;;;;;17.95;6.35;;;13.10;99.90;;;;;;5037917;28;20050;-64
2022/06/13 02:14:40;;;;;;;14.75;6.55;;;13.20;99.90;;;;;;5037979;28;20120;-64
2022/06/13 02:17:11;;;;;;;17.88;7.20;;;13.20;99.90;;;;;;5049063;28;20075;-64
2022/06/13 02:19:53;;;;;;;19.58;7.10;;;13.00;99.90;;;;;;5061024;28;20082;-64
2022/06/13 02:22:30;;;;;;;16.70;6.75;;;13.00;99.90;;;;;;5061262;28;20054;-64
2022/06/13 02:25:08;;;;;;;16.27;7.22;;;13.00;99.90;;;;;;5060765;28;20055;-64
2022/06/13 02:27:36;;;;;;;18.98;7.55;;;13.00;99.90;;;;;;5065533;28;20060;-64
2022/06/13 02:30:10;;;;;;;13.98;6.47;;;13.20;99.90;;;;;;5067686;28;20080;-64
2022/06/13 02:32:48;;;;;;;12.57;6.93;;;13.30;99.90;;;;;;5059626;28;20056;-64
2022/06/13 02:35:56;;;;;;;12.82;6.72;;;13.30;99.90;;;;;;5076454;28;20084;-64
2022/06/13 02:38:34;;;;;;;13.90;6.68;;;13.50;99.90;;;;;;5028175;28;20452;-64
2022/06/13 02:41:05;;;;;;;14.85;7.45;;;13.30;99.90;;;;;;5034762;28;20089;-64
2022/06/13 02:44:00;;;;;;;14.48;7.32;;;13.40;99.90;;;;;;5028832;28;20081;-64
2022/06/13 02:46:28;;;;;;;19.88;7.25;;;13.10;99.90;;;;;;4993001;28;20055;-64
2022/06/13 02:49:00;;;;;;;18.13;7.43;;;13.00;99.90;;;;;;4990431;28;20058;-64
2022/06/13 02:52:18;;;;;;;20.67;8.13;;;13.00;99.90;;;;;;4970585;28;20548;-64
2022/06/13 02:54:51;;;;;;;17.15;7.45;;;13.00;99.90;;;;;;4982541;28;20474;-64
2022/06/13 02:57:55;;;;;;;15.88;7.05;;;12.90;99.90;;;;;;5000102;28;20060;-64
2022/06/13 03:00:38;;;;;;;18.15;7.47;;;12.90;99.90;;;;;;4927438;29;20044;-64
2022/06/13 03:03:18;;;;;;;21.42;7.90;;;12.90;99.90;;;;;;4925803;29;20052;-64
2022/06/13 03:06:16;;;;;;;15.63;7.05;;;12.90;99.90;;;;;;4929981;29;20494;-64
2022/06/13 03:09:11;;;;;;;18.02;8.32;;;12.90;99.90;;;;;;4927436;29;20056;-64
2022/06/13 03:11:44;;;;;;;16.20;7.55;;;13.00;99.90;;;;;;4927994;29;20063;-64
2022/06/13 03:14:34;;;;;;;14.65;7.93;;;13.10;99.90;;;;;;4900853;29;20064;-64
2022/06/13 03:17:00;;;;;;;14.93;6.80;;;13.10;99.90;;;;;;4908637;29;20432;-64
2022/06/13 03:19:46;;;;;;;15.70;7.82;;;13.10;99.90;;;;;;4893599;29;20087;-64
2022/06/13 03:22:15;;;;;;;17.30;7.80;;;13.10;99.90;;;;;;4910035;28;20085;-64
2022/06/13 03:25:07;;;;;;;14.13;7.43;;;13.10;99.90;;;;;;4969996;28;20058;-64
2022/06/13 03:27:50;;;;;;;16.23;7.05;;;13.30;99.90;;;;;;4985529;28;20539;-64
2022/06/13 03:30:21;;;;;;;21.05;8.07;;;13.30;99.90;;;;;;4970555;28;20061;-64
2022/06/13 03:35:42;;;;;;;17.15;8.27;;;13.20;99.90;;;;;;4973930;28;20054;-64
2022/06/13 03:38:14;;;;;;;19.92;8.88;;;13.20;99.90;;;;;;5065066;28;20044;-64
2022/06/13 03:40:45;;;;;;;21.25;10.27;;;13.10;99.90;;;;;;5065969;28;20096;-64
2022/06/13 03:43:19;;;;;;;19.33;9.10;;;13.00;99.90;;;;;;5059165;28;20052;-64
2022/06/13 03:45:53;;;;;;;20.63;9.13;;;13.00;99.90;;;;;;5065608;28;20109;-64
2022/06/13 03:48:28;;;;;;;17.38;9.23;;;13.10;99.90;;;;;;5064851;28;20052;-64
2022/06/13 03:51:08;;;;;;;19.42;8.70;;;13.10;99.90;;;;;;5066107;28;20048;-64
2022/06/13 03:53:42;;;;;;;16.80;8.43;;;13.00;99.90;;;;;;5064705;28;20056;-64
2022/06/13 03:56:36;;;;;;;24.55;9.25;;;13.10;99.90;;;;;;5065549;28;20080;-64
2022/06/13 03:59:30;;;;;;;19.23;9.15;;;13.20;99.90;;;;;;5064545;28;20056;-64
2022/06/13 04:02:08;;;;;;;15.25;9.80;;;13.10;99.90;;;;;;5063892;28;20049;-64
2022/06/13 04:04:41;;;;;;;17.80;9.65;;;13.10;99.90;;;;;;5043921;28;20119;-64
2022/06/13 04:07:07;;;;;;;18.90;8.65;;;13.20;99.90;;;;;;5063976;28;20056;-64
2022/06/13 04:09:38;;;;;;;18.40;9.80;;;13.10;99.90;;;;;;5058666;28;20042;-64
2022/06/13 04:12:18;;;;;;;20.60;9.10;;;13.10;99.90;;;;;;5065332;28;20120;-64
2022/06/13 04:15:13;;;;;;;17.40;8.93;;;13.20;99.90;;;;;;5065559;28;20064;-64
2022/06/13 04:18:05;;;;;;;16.73;8.95;;;13.20;99.90;;;;;;5063608;28;20117;-64
2022/06/13 04:21:08;;;;;;;20.35;9.63;;;13.20;99.90;;;;;;5054591;28;20053;-64
2022/06/13 04:23:47;;;;;;;17.15;8.35;;;13.20;99.90;;;;;;5056055;28;20048;-64
2022/06/13 04:26:43;;;;;;;18.85;8.32;;;13.30;99.90;;;;;;5065330;28;20448;-64
2022/06/13 04:29:34;;;;;;;16.33;8.65;;;13.40;99.90;;;;;;5062140;28;20053;-64
2022/06/13 04:32:05;;;;;;;18.88;8.10;;;13.40;99.90;;;;;;5062201;28;20056;-64
2022/06/13 04:34:36;;;;;;;19.25;8.45;;;13.40;99.90;;;;;;5054601;28;20045;-65
2022/06/13 04:37:05;;;;;;;15.55;7.82;;;13.50;99.90;;;;;;5056132;28;20052;-64
2022/06/13 04:39:35;;;;;;;17.10;8.23;;;13.50;99.90;;;;;;5047145;28;20054;-64
2022/06/13 04:42:02;;;;;;;17.35;8.60;;;13.40;99.90;;;;;;5046136;28;20060;-64
2022/06/13 04:44:31;;;;;;;17.67;8.13;;;13.40;99.90;;;;;;4994698;28;20045;-62
2022/06/13 04:46:59;;;;;;;14.38;8.05;;;13.50;99.90;;;;;;5033841;28;20473;-63
2022/06/13 04:49:33;;;;;;;16.98;7.50;;;13.50;99.90;;;;;;5037558;28;20061;-63
2022/06/13 04:52:05;;;;;;;17.33;7.75;;;13.50;99.90;;;;;;5050252;28;20271;-63
2022/06/13 04:54:37;;;;;;;19.75;7.63;;;13.50;99.90;;;;;;5041139;28;20046;-63
2022/06/13 04:57:03;;;;;;;14.75;6.97;;;13.60;99.90;;;;;;5041688;28;20465;-63
2022/06/13 04:59:29;;;;;;;12.10;5.78;;;13.70;99.90;;;;;;5038569;28;20064;-63
2022/06/13 05:01:57;;;;;;;12.90;6.10;;;13.80;99.90;;;;;;5047818;28;20341;-63
2022/06/13 05:04:26;;;;;;;13.02;5.65;;;13.80;99.90;;;;;;5040896;28;20053;-63
2022/06/13 05:06:54;;;;;;;11.35;5.07;;;14.10;99.90;;;;;;5045051;28;20049;-63
2022/06/13 05:09:31;;;;;;;14.57;5.43;;;14.10;99.90;;;;;;5036973;28;20131;-64
2022/06/13 05:12:08;;;;;;;15.88;5.80;;;14.20;99.90;;;;;;5043944;28;20067;-64
2022/06/13 05:14:59;;;;;;;7.95;4.45;;;14.20;99.90;;;;;;5050915;28;20151;-65
2022/06/13 05:18:07;;;;;;;12.48;4.40;;;14.30;99.90;;;;;;5074397;28;20049;-64
2022/06/13 05:21:01;;;;;;;10.07;4.05;;;14.30;99.90;;;;;;5051959;28;20047;-64
2022/06/13 05:23:26;;;;;;;14.27;4.82;;;14.40;99.90;;;;;;5058920;28;20045;-65
2022/06/13 05:25:56;;;;;;;10.68;4.50;;;14.40;99.90;;;;;;5058410;28;20055;-64
2022/06/13 05:28:27;;;;;;;12.02;3.83;;;14.40;99.90;;;;;;5063117;28;20071;-65
2022/06/13 05:30:56;;;;;;;11.25;3.78;;;14.50;99.90;;;;;;5053038;28;20057;-65
2022/06/13 05:33:29;;;;;;;9.98;3.72;;;14.60;99.90;;;;;;5060070;28;20276;-66
2022/06/13 05:35:57;;;;;;;9.55;3.80;;;14.50;99.90;;;;;;5044579;28;20078;-65
2022/06/13 05:38:45;;;;;;;11.02;4.20;;;14.50;99.90;;;;;;5050504;28;20041;-65
2022/06/13 05:41:11;;;;;;;13.13;4.07;;;14.60;99.90;;;;;;5038458;28;20086;-65
2022/06/13 05:43:37;;;;;;;11.27;4.43;;;14.70;99.90;;;;;;5047686;28;20041;-65
2022/06/13 05:46:04;;;;;;;11.60;4.20;;;14.40;99.90;;;;;;5037997;28;20053;-65
2022/06/13 05:48:30;;;;;;;7.22;3.65;;;14.60;99.90;;;;;;5053106;28;20041;-65
2022/06/13 05:50:56;;;;;;;10.05;4.28;;;14.60;99.90;;;;;;5051492;28;20056;-65
2022/06/13 05:53:24;;;;;;;11.77;4.20;;;14.60;99.90;;;;;;5064630;28;20045;-65
2022/06/13 05:55:52;;;;;;;7.28;3.42;;;14.50;99.90;;;;;;5042257;28;20130;-65
2022/06/13 05:58:19;;;;;;;9.07;3.88;;;14.50;99.90;;;;;;5062659;28;20080;-65
2022/06/13 06:00:47;;;;;;;7.35;3.40;;;14.40;99.90;;;;;;5034928;28;20053;-63
2022/06/13 06:03:13;;;;;;;9.75;3.15;;;14.30;99.90;;;;;;5083044;28;20072;-63
2022/06/13 06:05:40;;;;;;;6.55;2.60;;;14.30;99.90;;;;;;5053776;28;20055;-62
2022/06/13 06:08:13;;;;;;;6.78;3.00;;;14.30;99.90;;;;;;5079039;28;20037;-62
2022/06/13 06:10:39;;;;;;;8.93;2.80;;;14.50;99.90;;;;;;5068589;28;20144;-62
2022/06/13 06:13:05;;;;;;;8.38;2.97;;;14.60;99.90;;;;;;5078751;28;20076;-63
2022/06/13 06:15:31;;;;;;;8.88;3.30;;;14.50;99.90;;;;;;5051074;28;20558;-62
2022/06/13 06:17:56;;;;;;;5.68;3.00;;;14.50;99.90;;;;;;5061489;28;20055;-62
2022/06/13 06:20:22;;;;;;;5.00;2.75;;;14.40;99.90;;;;;;5069567;28;20074;-62
2022/06/13 06:22:48;;;;;;;9.68;3.45;;;14.50;99.90;;;;;;5083378;28;20552;-63
2022/06/13 06:25:14;;;;;;;7.43;2.38;;;14.50;99.90;;;;;;5053159;28;20052;-64
2022/06/13 06:27:40;;;;;;;7.80;2.58;;;14.60;99.90;;;;;;5062419;28;20148;-63
2022/06/13 06:30:07;;;;;;;8.35;3.28;;;14.60;99.90;;;;;;5050119;28;20036;-63
2022/06/13 06:32:33;;;;;;;5.68;2.60;;;14.60;99.90;;;;;;5078285;28;20028;-62
2022/06/13 06:34:58;;;;;;;4.53;2.15;;;14.70;99.90;;;;;;5056802;28;20047;-63
2022/06/13 06:37:24;;;;;;;6.82;2.50;;;14.80;99.90;;;;;;5063901;28;20139;-63
2022/06/13 06:39:50;;;;;;;6.35;2.40;;;15.00;99.90;;;;;;5066060;28;20380;-62
2022/06/13 06:42:16;;;;;;;4.38;2.00;;;15.00;99.90;;;;;;5043366;28;20057;-62
2022/06/13 06:44:41;;;;;;;8.43;2.97;;;15.00;99.90;;;;;;5050847;28;20057;-63
2022/06/13 06:47:08;;;;;;;9.57;2.60;;;15.20;99.90;;;;;;5060725;28;20044;-63
2022/06/13 06:49:37;;;;;;;6.20;2.50;;;15.20;99.90;;;;;;5060176;28;20040;-63
2022/06/13 06:52:06;;;;;;;4.90;2.13;;;15.40;99.90;;;;;;5066546;28;20120;-64
2022/06/13 07:00:03;;;;;;;7.57;2.53;;;15.10;99.90;;;;;;5057346;28;20181;-63
2022/06/13 07:02:29;;;;;;;6.88;2.08;;;14.80;99.90;;;;;;5070867;28;20056;-63
2022/06/13 07:05:00;;;;;;;6.10;2.55;;;14.70;99.90;;;;;;5081006;28;20046;-63
2022/06/13 07:07:26;;;;;;;4.97;2.08;;;14.70;99.90;;;;;;5044125;28;20078;-64
2022/06/13 07:09:51;;;;;;;11.70;2.33;;;14.70;99.90;;;;;;5062356;28;20536;-63
2022/06/13 07:12:17;;;;;;;5.50;2.33;;;14.80;99.90;;;;;;5060584;28;20056;-63
2022/06/13 07:14:44;;;;;;;9.30;2.20;;;14.50;99.90;;;;;;5058715;28;20109;-63
2022/06/13 07:17:10;;;;;;;9.90;2.72;;;14.40;99.90;;;;;;5045229;28;20072;-63
2022/06/13 07:19:37;;;;;;;5.55;2.67;;;14.10;99.90;;;;;;5059956;28;20044;-63
2022/06/13 07:22:04;;;;;;;4.13;2.28;;;13.80;99.90;;;;;;5047433;28;20103;-63
2022/06/13 07:24:31;;;;;;;4.65;1.92;;;13.70;99.90;;;;;;5060440;28;20056;-64
2022/06/13 07:26:58;;;;;;;4.68;1.92;;;13.70;99.90;;;;;;5071641;28;20056;-64
2022/06/13 07:29:24;;;;;;;3.17;1.73;;;13.60;99.90;;;;;;5078787;28;20108;-64
2022/06/13 07:31:58;;;;;;;2.83;1.52;;;13.50;99.90;;;;;;5047414;28;20072;-64
2022/06/13 07:34:26;;;;;;;4.13;2.03;;;13.80;99.90;;;;;;5060349;28;20143;-63
2022/06/13 07:36:54;;;;;;;4.78;1.80;;;14.00;99.90;;;;;;5049447;28;20049;-64
2022/06/13 07:39:20;;;;;;;3.33;1.50;;;14.20;99.90;;;;;;5076069;28;20132;-64
2022/06/13 07:41:47;;;;;;;3.22;1.63;;;14.30;99.90;;;;;;5062493;28;20055;-64
2022/06/13 07:44:25;;;;;;;3.42;1.50;;;14.30;99.90;;;;;;5050367;28;20894;-64
2022/06/13 07:46:51;;;;;;;2.80;1.60;;;14.40;99.90;;;;;;5064072;28;20588;-64
2022/06/13 07:49:18;;;;;;;3.65;1.85;;;14.50;99.90;;;;;;5057009;28;20044;-64
2022/06/13 07:51:45;;;;;;;1.80;1.50;;;14.50;99.90;;;;;;5060035;28;20056;-64
2022/06/13 07:54:11;;;;;;;2.22;1.75;;;14.60;99.90;;;;;;5078895;28;20063;-64
2022/06/13 07:56:38;;;;;;;2.70;1.65;;;14.70;99.90;;;;;;5066993;28;20056;-64
2022/06/13 07:59:05;;;;;;;6.88;1.88;;;14.70;99.90;;;;;;5067268;28;20066;-64
2022/06/13 08:01:31;;;;;;;3.60;1.58;;;14.80;99.90;;;;;;5051857;28;20045;-64
2022/06/13 08:03:58;;;;;;;6.97;1.80;;;14.80;99.90;;;;;;5082934;28;20517;-64
2022/06/13 08:06:25;;;;;;;5.72;2.20;;;14.80;99.90;;;;;;5050421;28;20064;-64
2022/06/13 08:08:51;;;;;;;3.85;2.15;;;15.00;99.90;;;;;;5075354;28;20029;-64
2022/06/13 08:11:30;;;;;;;4.78;2.72;;;15.20;99.90;;;;;;5043617;28;20099;-64
2022/06/13 08:13:56;;;;;;;5.07;2.00;;;15.20;99.90;;;;;;5054920;28;20041;-64
2022/06/13 08:16:22;;;;;;;5.32;2.08;;;15.50;99.90;;;;;;5049561;28;20086;-64
2022/06/13 08:18:48;;;;;;;6.57;2.03;;;15.50;99.90;;;;;;5079069;28;20052;-64
2022/06/13 08:21:14;;;;;;;4.68;2.15;;;15.60;99.90;;;;;;5060899;28;20092;-64
2022/06/13 08:23:39;;;;;;;6.72;2.50;;;15.70;99.90;;;;;;5072358;28;20039;-64
2022/06/13 08:26:05;;;;;;;8.80;2.75;;;15.60;99.90;;;;;;5062388;28;20086;-64
2022/06/13 08:28:32;;;;;;;4.85;2.45;;;15.70;99.90;;;;;;5072215;28;20052;-64
2022/06/13 08:31:19;;;;;;;8.60;2.38;;;15.70;99.90;;;;;;5046705;28;20102;-64
2022/06/13 08:33:46;;;;;;;8.60;2.80;;;15.90;99.90;;;;;;5068111;28;20459;-64
2022/06/13 08:36:12;;;;;;;5.57;2.67;;;16.00;99.90;;;;;;5035726;28;20525;-64
2022/06/13 08:38:38;;;;;;;6.60;2.40;;;15.80;99.90;;;;;;5061072;28;20346;-64
2022/06/13 08:41:10;;;;;;;4.40;1.80;;;15.60;99.90;;;;;;5040124;28;20523;-64
2022/06/13 08:44:00;;;;;;;5.82;2.33;;;15.70;99.90;;;;;;5056238;28;20729;-65
2022/06/13 08:46:58;;;;;;;4.60;2.10;;;15.60;99.90;;;;;;5051751;28;20068;-64
2022/06/13 08:49:42;;;;;;;5.30;2.42;;;15.70;99.90;;;;;;5056319;28;20495;-64
2022/06/13 08:52:29;;;;;;;5.80;2.50;;;15.60;99.90;;;;;;5046267;28;20071;-64
2022/06/13 08:55:02;;;;;;;8.07;2.38;;;15.40;99.90;;;;;;5074377;28;20051;-64
2022/06/13 08:57:32;;;;;;;5.30;2.03;;;15.30;99.90;;;;;;5043381;28;20595;-64
2022/06/13 09:00:08;;;;;;;5.20;2.00;;;15.20;99.90;;;;;;5064962;28;20099;-64
2022/06/13 09:02:37;;;;;;;6.47;2.00;;;15.20;99.90;;;;;;5045268;28;20064;-64
2022/06/13 09:05:33;;;;;;;6.38;2.53;;;15.30;99.90;;;;;;5076154;28;20188;-64
2022/06/13 09:08:23;;;;;;;6.88;2.78;;;15.50;99.90;;;;;;5034819;28;20037;-64
2022/06/13 09:11:11;;;;;;;;;;;15.60;99.90;;;;;;5041740;28;20060;-64
2022/06/13 09:14:00;;;;;;;5.13;3.08;;;15.60;99.90;;;;;;5023516;28;20286;-65
2022/06/13 09:16:35;;;;;;;5.97;2.13;;;15.40;99.90;;;;;;5050322;28;20067;-63
2022/06/13 09:19:33;;;;;;;9.95;2.53;;;15.10;99.90;;;;;;5076507;28;20120;-64
2022/06/13 09:22:37;;;;;;;7.22;2.25;;;15.00;99.90;;;;;;5063345;28;20391;-62
2022/06/13 09:25:19;;;;;;;10.50;2.40;;;15.20;99.90;;;;;;5010002;28;20050;-65
2022/06/13 09:27:56;;;;;;;5.95;1.90;;;15.10;99.90;;;;;;4988120;28;20041;-64
2022/06/13 09:30:38;;;;;;;7.55;2.30;;;15.10;99.90;;;;;;4996260;28;20053;-63
2022/06/13 09:33:16;;;;;;;8.15;2.20;;;15.30;99.90;;;;;;4982774;28;20577;-63
2022/06/13 09:35:55;;;;;;;9.80;2.38;;;15.60;99.90;;;;;;5002807;28;20061;-64
2022/06/13 09:38:35;;;;;;;6.00;1.92;;;16.10;99.90;;;;;;5014233;28;20046;-63
2022/06/13 09:41:04;;;;;;;6.72;1.95;;;16.50;99.90;;;;;;4989570;28;20050;-63
2022/06/13 09:43:50;;;;;;;5.18;2.55;;;16.50;99.90;;;;;;5002574;28;20554;-63
2022/06/13 09:46:50;;;;;;;7.47;2.45;;;16.40;99.90;;;;;;4988105;28;20073;-63
2022/06/13 09:49:21;;;;;;;5.18;2.03;;;15.90;99.90;;;;;;4994543;28;20062;-63
2022/06/13 09:52:01;;;;;;;5.10;1.80;;;16.30;99.90;;;;;;5002225;28;20076;-65
2022/06/13 09:54:57;;;;;;;6.68;2.13;;;16.70;99.90;;;;;;5011519;28;20061;-64
2022/06/13 09:57:48;;;;;;;5.97;1.95;;;16.80;99.90;;;;;;4986070;28;20068;-63
2022/06/13 10:00:36;;;;;;;4.30;1.90;;;16.60;99.90;;;;;;5011893;28;20070;-63
2022/06/13 10:03:11;;;;;;;6.93;2.00;;;16.20;99.90;;;;;;5052964;28;20408;-63
2022/06/13 10:05:45;;;;;;;6.03;2.00;;;16.20;99.90;;;;;;5054380;28;20076;-65
2022/06/13 10:08:58;;;;;;;4.78;2.15;;;16.20;99.90;;;;;;5054189;28;20056;-64
2022/06/13 10:11:54;;;;;;;3.47;1.88;;;16.30;99.90;;;;;;5011458;28;20045;-64
2022/06/13 10:14:43;;;;;;;5.78;2.63;;;16.20;99.90;;;;;;5034410;28;20061;-63
2022/06/13 10:17:23;;;;;;;5.35;1.80;;;15.90;99.90;;;;;;5024567;28;20253;-64
2022/06/13 10:20:33;;;;;;;9.83;2.87;;;16.10;99.90;;;;;;5034322;28;20061;-64
2022/06/13 10:23:29;;;;;;;7.13;2.15;;;16.10;99.90;;;;;;4966315;28;20310;-63
2022/06/13 10:26:09;;;;;;;6.90;2.20;;;16.30;99.90;;;;;;4967589;28;20507;-64
2022/06/13 10:28:47;;;;;;;9.85;2.17;;;16.80;99.90;;;;;;4962389;28;20057;-63
2022/06/13 10:31:40;;;;;;;4.60;2.30;;;17.30;99.90;;;;;;4962615;28;20059;-63
2022/06/13 10:34:21;;;;;;;4.78;2.15;;;16.40;99.90;;;;;;4974976;28;20042;-63
2022/06/13 10:36:55;;;;;;;4.35;2.05;;;15.20;99.90;;;;;;4960969;28;20105;-64
2022/06/13 10:39:24;;;;;;;5.32;2.05;;;14.90;99.90;;;;;;4975705;28;20055;-63
2022/06/13 10:41:55;;;;;;;8.00;2.47;;;14.90;99.90;;;;;;4966069;28;20117;-64
2022/06/13 10:44:22;;;;;;;9.30;2.28;;;14.90;99.90;;;;;;4968368;28;20416;-64
2022/06/13 10:47:00;;;;;;;6.68;2.42;;;15.00;99.90;;;;;;5005721;28;20286;-63
2022/06/13 10:49:31;;;;;;;5.15;2.05;;;14.80;99.90;;;;;;5011386;28;20049;-64
2022/06/13 10:52:03;;;;;;;7.85;2.60;;;14.80;99.90;;;;;;5006235;28;20046;-64
2022/06/13 10:54:36;;;;;;;9.85;3.10;;;15.40;99.90;;;;;;5015089;28;20050;-64
2022/06/13 10:57:07;;;;;;;8.23;2.58;;;15.70;99.90;;;;;;5040149;28;20067;-63
2022/06/13 10:59:35;;;;;;;8.85;2.85;;;16.10;99.90;;;;;;5077685;28;20134;-64
2022/06/13 11:02:20;;;;;;;8.85;2.72;;;16.40;99.90;;;;;;5050474;28;20120;-64
2022/06/13 11:05:04;;;;;;;5.70;2.50;;;16.50;99.90;;;;;;5078243;28;20463;-64
2022/06/13 11:07:32;;;;;;;7.22;2.45;;;15.90;99.90;;;;;;5043704;28;20166;-64
2022/06/13 11:09:58;;;;;;;3.90;2.38;;;16.10;99.90;;;;;;5078787;28;20588;-64
2022/06/13 11:12:31;;;;;;;4.22;2.10;;;15.80;99.90;;;;;;5042604;28;20049;-64
2022/06/13 11:24:14;;;;;;;7.60;2.72;;;16.00;99.90;;;;;;5047960;28;20047;-63
2022/06/13 11:29:31;;;;;;;8.98;2.50;;;16.00;99.90;;;;;;5059128;28;20089;-64
2022/06/13 11:31:59;;;;;;;6.32;2.60;;;16.20;99.90;;;;;;5047785;28;20040;-64
2022/06/13 11:34:28;;;;;;;9.27;2.50;;;16.40;99.90;;;;;;5051634;28;20550;-64
2022/06/13 11:37:04;;;;;;;9.65;2.65;;;16.70;99.90;;;;;;5065207;28;20052;-63
2022/06/13 11:39:39;;;;;;;8.48;2.50;;;17.00;99.90;;;;;;5076656;28;20040;-63
2022/06/13 11:42:27;;;;;;;12.10;3.30;;;16.90;99.90;;;;;;5065285;28;20090;-64
2022/06/13 11:44:58;;;;;;;8.32;2.40;;;16.80;99.90;;;;;;5040906;28;20056;-63
2022/06/13 11:47:24;;;;;;;7.20;2.50;;;16.30;99.90;;;;;;5067502;28;20112;-63
2022/06/13 11:49:56;;;;;;;8.93;2.65;;;16.10;99.90;;;;;;5076907;28;20051;-64
2022/06/13 11:55:55;;;;;;;8.40;2.58;;;16.60;99.90;;;;;;5063631;28;20048;-63
2022/06/13 11:58:25;;;;;;;5.43;2.30;;;17.10;99.90;;;;;;5068939;28;20112;-64
2022/06/13 12:01:18;;;;;;;11.55;3.10;;;17.50;99.90;;;;;;5060577;28;20114;-64
2022/06/13 12:04:04;;;;;;;8.45;2.50;;;17.50;99.90;;;;;;4950845;28;20085;-64
2022/06/13 12:06:57;;;;;;;8.13;2.65;;;17.10;99.90;;;;;;4983659;28;20062;-64
2022/06/13 12:09:31;;;;;;;10.75;2.85;;;16.90;99.90;;;;;;4978145;28;20054;-64
2022/06/13 12:12:06;;;;;;;10.27;2.55;;;16.80;99.90;;;;;;4968188;28;20058;-64
2022/06/13 12:14:40;;;;;;;7.47;2.50;;;16.90;99.90;;;;;;4996063;28;20144;-64
2022/06/13 12:17:27;;;;;;;8.70;2.47;;;17.10;99.90;;;;;;4985050;28;20055;-64
2022/06/13 12:20:02;;;;;;;10.98;2.85;;;17.00;99.90;;;;;;4976000;28;20054;-63
2022/06/13 12:22:55;;;;;;;7.97;2.72;;;17.00;99.90;;;;;;4966734;28;20066;-64
2022/06/13 12:25:31;;;;;;;7.70;2.60;;;16.80;99.90;;;;;;4992476;28;20392;-63
2022/06/13 12:28:16;;;;;;;9.68;3.10;;;16.90;99.90;;;;;;4982866;28;20050;-65
2022/06/13 12:30:57;;;;;;;11.25;3.08;;;17.10;99.90;;;;;;4994811;28;20050;-64
2022/06/13 12:33:26;;;;;;;7.70;2.58;;;17.40;99.90;;;;;;4982788;28;20065;-64
2022/06/13 12:36:14;;;;;;;8.77;2.30;;;17.50;99.90;;;;;;4992830;28;20339;-63
2022/06/13 12:39:13;;;;;;;12.75;2.50;;;17.60;99.90;;;;;;4967123;28;20133;-63
2022/06/13 12:41:48;;;;;;;10.32;2.95;;;17.30;99.90;;;;;;5059382;28;20051;-64
2022/06/13 12:44:38;;;;;;;9.10;2.40;;;17.60;99.90;;;;;;5042124;28;20061;-64
2022/06/13 12:47:25;;;;;;;10.75;2.85;;;17.80;99.90;;;;;;5046620;28;20086;-63
2022/06/13 12:50:19;;;;;;;7.13;3.03;;;18.10;99.90;;;;;;5072585;28;20044;-64
2022/06/13 12:52:54;;;;;;;8.63;2.67;;;18.50;99.90;;;;;;5064810;28;20064;-64
2022/06/13 12:55:31;;;;;;;12.45;2.53;;;18.50;99.90;;;;;;5057002;28;20121;-64
2022/06/13 12:58:18;;;;;;;7.72;2.60;;;18.40;99.90;;;;;;5049047;28;20048;-64
2022/06/13 13:00:57;;;;;;;7.78;3.20;;;18.50;99.90;;;;;;5061622;28;20051;-64
2022/06/13 13:03:48;;;;;;;6.33;2.20;;;18.20;99.90;;;;;;5061882;28;20103;-64
2022/06/13 13:06:14;;;;;;;10.38;2.53;;;17.60;99.90;;;;;;5078637;28;20287;-64
2022/06/13 13:09:32;;;;;;;10.52;2.67;;;17.50;99.90;;;;;;5036439;28;20285;-64
2022/06/13 13:12:01;;;;;;;6.18;2.40;;;17.10;99.90;;;;;;5015121;28;20053;-63
2022/06/13 13:14:41;;;;;;;8.50;2.22;;;16.90;99.90;;;;;;5005327;28;20072;-63
2022/06/13 13:17:25;;;;;;;10.43;2.35;;;17.10;99.90;;;;;;5005981;28;20055;-64
2022/06/13 13:20:30;;;;;;;6.03;1.90;;;17.80;99.90;;;;;;5006953;28;20472;-64
2022/06/13 13:23:06;;;;;;;7.28;2.25;;;17.90;99.90;;;;;;4973837;28;20116;-63
2022/06/13 13:25:53;;;;;;;5.82;2.45;;;17.60;99.90;;;;;;5014349;28;20119;-63
2022/06/13 13:28:24;;;;;;;5.28;2.30;;;17.50;99.90;;;;;;5005101;28;20050;-64
2022/06/13 13:30:58;;;;;;;9.38;2.28;;;17.30;99.90;;;;;;5018951;28;20074;-64
2022/06/13 13:33:51;;;;;;;4.82;2.00;;;17.90;99.90;;;;;;5018470;28;20077;-63
2022/06/13 13:36:46;;;;;;;8.80;2.30;;;18.20;99.90;;;;;;5012459;28;20057;-62
2022/06/13 13:39:18;;;;;;;8.60;3.20;;;18.10;99.90;;;;;;4993108;28;20049;-62
2022/06/13 13:41:56;;;;;;;7.25;2.45;;;17.60;99.90;;;;;;5023506;28;20064;-62
2022/06/13 13:44:40;;;;;;;7.70;2.25;;;17.20;99.90;;;;;;4985702;28;20196;-63
2022/06/13 13:47:20;;;;;;;9.18;2.42;;;16.60;99.90;;;;;;5031568;28;20076;-63
2022/06/13 13:50:20;;;;;;;7.78;2.70;;;16.70;99.90;;;;;;5051699;28;20053;-63
2022/06/13 13:52:51;;;;;;;8.43;2.20;;;16.70;99.90;;;;;;5063200;28;20053;-63